sensor_id;sensor_type;location;lat;lon;timestamp;temperature;humidity
14735;DHT22;7458;49.002;8.472;2023-01-10T00:01:35;6.80;99.90
14735;DHT22;7458;49.002;8.472;2023-01-10T00:04:01;6.80;99.90
14735;DHT22;7458;49.002;8.472;2023-01-10T00:06:26;6.80;99.90
14735;DHT22;7458;49.002;8.472;2023-01-10T00:08:52;6.80;99.90
14735;DHT22;7458;49.002;8.472;2023-01-10T00:11:18;6.80;99.90
14735;DHT22;7458;49.002;8.472;2023-01-10T00:14:02;6.90;99.90
14735;DHT22;7458;49.002;8.472;2023-01-10T00:16:28;7.10;99.90
14735;DHT22;7458;49.002;8.472;2023-01-10T00:18:54;7.10;99.90
14735;DHT22;7458;49.002;8.472;2023-01-10T00:21:19;7.10;99.90
14735;DHT22;7458;49.002;8.472;2023-01-10T00:23:45;7.10;99.90
14735;DHT22;7458;49.002;8.472;2023-01-10T00:26:13;7.20;99.90
14735;DHT22;7458;49.002;8.472;2023-01-10T00:28:38;7.30;99.90
14735;DHT22;7458;49.002;8.472;2023-01-10T00:31:05;7.20;99.90
14735;DHT22;7458;49.002;8.472;2023-01-10T00:33:32;7.20;99.90
14735;DHT22;7458;49.002;8.472;2023-01-10T00:35:59;7.40;99.90
14735;DHT22;7458;49.002;8.472;2023-01-10T00:38:25;7.20;99.90
14735;DHT22;7458;49.002;8.472;2023-01-10T00:40:51;7.20;99.90
14735;DHT22;7458;49.002;8.472;2023-01-10T00:43:17;7.10;99.90
14735;DHT22;7458;49.002;8.472;2023-01-10T00:46:01;7.10;99.90
14735;DHT22;7458;49.002;8.472;2023-01-10T00:48:28;7.10;99.90
14735;DHT22;7458;49.002;8.472;2023-01-10T00:50:54;7.10;99.90
14735;DHT22;7458;49.002;8.472;2023-01-10T00:53:20;7.10;99.90
14735;DHT22;7458;49.002;8.472;2023-01-10T00:55:47;7.10;99.90
14735;DHT22;7458;49.002;8.472;2023-01-10T00:58:14;7.10;99.90
14735;DHT22;7458;49.002;8.472;2023-01-10T01:00:40;7.10;99.90
14735;DHT22;7458;49.002;8.472;2023-01-10T01:03:10;7.20;99.90
14735;DHT22;7458;49.002;8.472;2023-01-10T01:05:43;7.20;99.90
14735;DHT22;7458;49.002;8.472;2023-01-10T01:08:11;7.10;99.90
14735;DHT22;7458;49.002;8.472;2023-01-10T01:10:39;7.10;99.90
14735;DHT22;7458;49.002;8.472;2023-01-10T01:13:25;7.10;99.90
14735;DHT22;7458;49.002;8.472;2023-01-10T01:15:51;7.10;99.90
14735;DHT22;7458;49.002;8.472;2023-01-10T01:18:19;7.10;99.90
14735;DHT22;7458;49.002;8.472;2023-01-10T01:20:46;7.10;99.90
14735;DHT22;7458;49.002;8.472;2023-01-10T01:23:15;7.10;99.90
14735;DHT22;7458;49.002;8.472;2023-01-10T01:25:41;7.10;99.90
14735;DHT22;7458;49.002;8.472;2023-01-10T01:28:09;7.20;99.90
14735;DHT22;7458;49.002;8.472;2023-01-10T01:30:37;7.10;99.90
14735;DHT22;7458;49.002;8.472;2023-01-10T01:33:03;7.10;99.90
14735;DHT22;7458;49.002;8.472;2023-01-10T01:35:29;7.10;99.90
14735;DHT22;7458;49.002;8.472;2023-01-10T01:37:54;7.20;99.90
14735;DHT22;7458;49.002;8.472;2023-01-10T01:40:21;7.20;99.90
14735;DHT22;7458;49.002;8.472;2023-01-10T01:42:48;7.30;99.90
14735;DHT22;7458;49.002;8.472;2023-01-10T01:45:40;7.30;99.90
14735;DHT22;7458;49.002;8.472;2023-01-10T01:53:47;7.30;99.90
14735;DHT22;7458;49.002;8.472;2023-01-10T01:56:24;7.30;99.90
14735;DHT22;7458;49.002;8.472;2023-01-10T01:59:13;7.30;99.90
14735;DHT22;7458;49.002;8.472;2023-01-10T02:01:45;7.30;99.90
14735;DHT22;7458;49.002;8.472;2023-01-10T02:04:31;7.30;99.90
14735;DHT22;7458;49.002;8.472;2023-01-10T02:07:19;7.30;99.90
14735;DHT22;7458;49.002;8.472;2023-01-10T02:10:07;7.30;99.90
14735;DHT22;7458;49.002;8.472;2023-01-10T02:12:38;7.30;99.90
14735;DHT22;7458;49.002;8.472;2023-01-10T02:15:05;7.30;99.90
14735;DHT22;7458;49.002;8.472;2023-01-10T02:17:31;7.20;99.90
14735;DHT22;7458;49.002;8.472;2023-01-10T02:20:00;7.30;99.90
14735;DHT22;7458;49.002;8.472;2023-01-10T02:39:28;7.10;99.90
14735;DHT22;7458;49.002;8.472;2023-01-10T02:42:25;7.00;99.90
14735;DHT22;7458;49.002;8.472;2023-01-10T02:45:27;7.00;99.90
14735;DHT22;7458;49.002;8.472;2023-01-10T02:47:58;7.00;99.90
14735;DHT22;7458;49.002;8.472;2023-01-10T03:01:50;7.10;99.90
14735;DHT22;7458;49.002;8.472;2023-01-10T03:10:34;7.10;99.90
14735;DHT22;7458;49.002;8.472;2023-01-10T03:16:22;7.00;99.90
14735;DHT22;7458;49.002;8.472;2023-01-10T03:19:03;7.00;99.90
14735;DHT22;7458;49.002;8.472;2023-01-10T03:21:34;7.00;99.90
14735;DHT22;7458;49.002;8.472;2023-01-10T03:24:06;7.00;99.90
14735;DHT22;7458;49.002;8.472;2023-01-10T03:29:41;7.00;99.90
14735;DHT22;7458;49.002;8.472;2023-01-10T03:32:14;7.00;99.90
14735;DHT22;7458;49.002;8.472;2023-01-10T03:34:44;7.00;99.90
14735;DHT22;7458;49.002;8.472;2023-01-10T03:37:33;7.00;99.90
14735;DHT22;7458;49.002;8.472;2023-01-10T03:40:16;7.00;99.90
14735;DHT22;7458;49.002;8.472;2023-01-10T03:42:55;6.90;99.90
14735;DHT22;7458;49.002;8.472;2023-01-10T03:46:02;6.90;99.90
14735;DHT22;7458;49.002;8.472;2023-01-10T03:48:37;6.70;99.90
14735;DHT22;7458;49.002;8.472;2023-01-10T03:51:06;6.70;99.90
14735;DHT22;7458;49.002;8.472;2023-01-10T03:53:36;6.60;99.90
14735;DHT22;7458;49.002;8.472;2023-01-10T03:56:04;6.50;99.90
14735;DHT22;7458;49.002;8.472;2023-01-10T03:58:31;6.40;99.90
14735;DHT22;7458;49.002;8.472;2023-01-10T04:00:57;6.40;99.90
14735;DHT22;7458;49.002;8.472;2023-01-10T04:03:23;6.40;99.90
14735;DHT22;7458;49.002;8.472;2023-01-10T04:05:49;6.40;99.90
14735;DHT22;7458;49.002;8.472;2023-01-10T04:08:15;6.40;99.90
14735;DHT22;7458;49.002;8.472;2023-01-10T04:10:40;6.40;99.90
14735;DHT22;7458;49.002;8.472;2023-01-10T04:13:06;6.40;99.90
14735;DHT22;7458;49.002;8.472;2023-01-10T04:15:32;6.50;99.90
14735;DHT22;7458;49.002;8.472;2023-01-10T04:17:57;6.50;99.90
14735;DHT22;7458;49.002;8.472;2023-01-10T04:20:23;6.50;99.90
14735;DHT22;7458;49.002;8.472;2023-01-10T04:22:52;6.60;99.90
14735;DHT22;7458;49.002;8.472;2023-01-10T04:25:20;6.60;99.90
14735;DHT22;7458;49.002;8.472;2023-01-10T04:27:48;6.70;99.90
14735;DHT22;7458;49.002;8.472;2023-01-10T04:30:15;6.70;99.90
14735;DHT22;7458;49.002;8.472;2023-01-10T04:32:41;6.80;99.90
14735;DHT22;7458;49.002;8.472;2023-01-10T04:35:08;6.80;99.90
14735;DHT22;7458;49.002;8.472;2023-01-10T04:37:34;6.80;99.90
14735;DHT22;7458;49.002;8.472;2023-01-10T04:39:59;6.80;99.90
14735;DHT22;7458;49.002;8.472;2023-01-10T04:42:25;6.80;99.90
14735;DHT22;7458;49.002;8.472;2023-01-10T04:44:51;6.80;99.90
14735;DHT22;7458;49.002;8.472;2023-01-10T04:47:16;6.80;99.90
14735;DHT22;7458;49.002;8.472;2023-01-10T04:49:42;6.80;99.90
14735;DHT22;7458;49.002;8.472;2023-01-10T04:52:09;6.90;99.90
14735;DHT22;7458;49.002;8.472;2023-01-10T04:54:35;6.90;99.90
14735;DHT22;7458;49.002;8.472;2023-01-10T04:57:01;6.90;99.90
14735;DHT22;7458;49.002;8.472;2023-01-10T04:59:27;6.90;99.90
14735;DHT22;7458;49.002;8.472;2023-01-10T05:01:52;6.90;99.90
14735;DHT22;7458;49.002;8.472;2023-01-10T05:04:18;6.90;99.90
14735;DHT22;7458;49.002;8.472;2023-01-10T05:06:44;6.90;99.90
14735;DHT22;7458;49.002;8.472;2023-01-10T05:09:10;6.90;99.90
14735;DHT22;7458;49.002;8.472;2023-01-10T05:11:35;6.90;99.90
14735;DHT22;7458;49.002;8.472;2023-01-10T05:14:01;6.90;99.90
14735;DHT22;7458;49.002;8.472;2023-01-10T05:16:27;6.90;99.90
14735;DHT22;7458;49.002;8.472;2023-01-10T05:18:53;6.90;99.90
14735;DHT22;7458;49.002;8.472;2023-01-10T05:21:19;6.90;99.90
14735;DHT22;7458;49.002;8.472;2023-01-10T05:23:45;6.90;99.90
14735;DHT22;7458;49.002;8.472;2023-01-10T05:26:13;6.90;99.90
14735;DHT22;7458;49.002;8.472;2023-01-10T05:28:41;7.00;99.90
14735;DHT22;7458;49.002;8.472;2023-01-10T05:31:09;7.00;99.90
14735;DHT22;7458;49.002;8.472;2023-01-10T05:33:37;6.90;99.90
14735;DHT22;7458;49.002;8.472;2023-01-10T05:36:06;6.90;99.90
14735;DHT22;7458;49.002;8.472;2023-01-10T05:38:32;7.00;99.90
14735;DHT22;7458;49.002;8.472;2023-01-10T05:40:58;7.00;99.90
14735;DHT22;7458;49.002;8.472;2023-01-10T05:43:25;6.90;99.90
14735;DHT22;7458;49.002;8.472;2023-01-10T05:45:51;7.10;99.90
14735;DHT22;7458;49.002;8.472;2023-01-10T05:48:17;7.00;99.90
14735;DHT22;7458;49.002;8.472;2023-01-10T05:50:43;6.90;99.90
14735;DHT22;7458;49.002;8.472;2023-01-10T05:53:10;6.90;99.90
14735;DHT22;7458;49.002;8.472;2023-01-10T05:55:35;6.90;99.90
14735;DHT22;7458;49.002;8.472;2023-01-10T05:58:01;6.90;99.90
14735;DHT22;7458;49.002;8.472;2023-01-10T06:00:27;6.90;99.90
14735;DHT22;7458;49.002;8.472;2023-01-10T06:02:54;7.00;99.90
14735;DHT22;7458;49.002;8.472;2023-01-10T06:05:21;7.00;99.90
14735;DHT22;7458;49.002;8.472;2023-01-10T06:07:47;6.90;99.90
14735;DHT22;7458;49.002;8.472;2023-01-10T06:10:14;6.90;99.90
14735;DHT22;7458;49.002;8.472;2023-01-10T06:12:40;6.90;99.90
14735;DHT22;7458;49.002;8.472;2023-01-10T06:15:07;7.00;99.90
14735;DHT22;7458;49.002;8.472;2023-01-10T06:17:34;7.00;99.90
14735;DHT22;7458;49.002;8.472;2023-01-10T06:20:00;7.00;99.90
14735;DHT22;7458;49.002;8.472;2023-01-10T06:22:26;7.00;99.90
14735;DHT22;7458;49.002;8.472;2023-01-10T06:24:52;7.00;99.90
14735;DHT22;7458;49.002;8.472;2023-01-10T06:27:21;7.00;99.90
14735;DHT22;7458;49.002;8.472;2023-01-10T06:29:47;7.10;99.90
14735;DHT22;7458;49.002;8.472;2023-01-10T06:32:13;7.10;99.90
14735;DHT22;7458;49.002;8.472;2023-01-10T06:34:38;7.10;99.90
14735;DHT22;7458;49.002;8.472;2023-01-10T06:37:04;7.10;99.90
14735;DHT22;7458;49.002;8.472;2023-01-10T06:39:30;7.10;99.90
14735;DHT22;7458;49.002;8.472;2023-01-10T06:41:55;7.10;99.90
14735;DHT22;7458;49.002;8.472;2023-01-10T06:44:21;7.10;99.90
14735;DHT22;7458;49.002;8.472;2023-01-10T06:46:47;7.10;99.90
14735;DHT22;7458;49.002;8.472;2023-01-10T06:49:13;7.10;99.90
14735;DHT22;7458;49.002;8.472;2023-01-10T06:51:38;7.20;99.90
14735;DHT22;7458;49.002;8.472;2023-01-10T06:54:04;7.10;99.90
14735;DHT22;7458;49.002;8.472;2023-01-10T06:56:30;7.10;99.90
14735;DHT22;7458;49.002;8.472;2023-01-10T06:58:56;7.10;99.90
14735;DHT22;7458;49.002;8.472;2023-01-10T07:01:22;7.20;99.90
14735;DHT22;7458;49.002;8.472;2023-01-10T07:03:47;7.20;99.90
14735;DHT22;7458;49.002;8.472;2023-01-10T07:06:13;7.20;99.90
14735;DHT22;7458;49.002;8.472;2023-01-10T07:08:42;7.10;99.90
14735;DHT22;7458;49.002;8.472;2023-01-10T07:11:10;7.10;99.90
14735;DHT22;7458;49.002;8.472;2023-01-10T07:13:38;7.20;99.90
14735;DHT22;7458;49.002;8.472;2023-01-10T07:16:06;7.10;99.90
14735;DHT22;7458;49.002;8.472;2023-01-10T07:18:38;7.10;99.90
14735;DHT22;7458;49.002;8.472;2023-01-10T07:21:05;7.00;99.90
14735;DHT22;7458;49.002;8.472;2023-01-10T07:23:31;6.90;99.90
14735;DHT22;7458;49.002;8.472;2023-01-10T07:26:01;6.90;99.90
14735;DHT22;7458;49.002;8.472;2023-01-10T07:28:29;6.80;99.90
14735;DHT22;7458;49.002;8.472;2023-01-10T07:30:58;6.80;99.90
14735;DHT22;7458;49.002;8.472;2023-01-10T07:33:24;6.80;99.90
14735;DHT22;7458;49.002;8.472;2023-01-10T07:35:50;6.90;99.90
14735;DHT22;7458;49.002;8.472;2023-01-10T07:38:18;7.00;99.90
14735;DHT22;7458;49.002;8.472;2023-01-10T07:40:43;7.00;99.90
14735;DHT22;7458;49.002;8.472;2023-01-10T07:43:09;6.90;99.90
14735;DHT22;7458;49.002;8.472;2023-01-10T07:45:35;6.90;99.90
14735;DHT22;7458;49.002;8.472;2023-01-10T07:48:02;6.90;99.90
14735;DHT22;7458;49.002;8.472;2023-01-10T07:50:32;6.90;99.90
14735;DHT22;7458;49.002;8.472;2023-01-10T07:53:01;6.80;99.90
14735;DHT22;7458;49.002;8.472;2023-01-10T07:55:29;6.80;99.90
14735;DHT22;7458;49.002;8.472;2023-01-10T07:57:56;7.00;99.90
14735;DHT22;7458;49.002;8.472;2023-01-10T08:00:21;6.80;99.90
14735;DHT22;7458;49.002;8.472;2023-01-10T08:02:52;6.80;99.90
14735;DHT22;7458;49.002;8.472;2023-01-10T08:05:19;6.90;99.90
14735;DHT22;7458;49.002;8.472;2023-01-10T08:07:45;7.50;99.90
14735;DHT22;7458;49.002;8.472;2023-01-10T08:10:11;10.00;99.90
14735;DHT22;7458;49.002;8.472;2023-01-10T08:12:37;9.50;99.90
14735;DHT22;7458;49.002;8.472;2023-01-10T08:15:02;8.90;99.90
14735;DHT22;7458;49.002;8.472;2023-01-10T08:17:34;8.40;99.90
14735;DHT22;7458;49.002;8.472;2023-01-10T08:20:01;8.30;99.90
14735;DHT22;7458;49.002;8.472;2023-01-10T08:22:27;8.10;99.90
14735;DHT22;7458;49.002;8.472;2023-01-10T08:24:53;8.00;99.90
14735;DHT22;7458;49.002;8.472;2023-01-10T08:27:18;7.90;99.90
14735;DHT22;7458;49.002;8.472;2023-01-10T08:29:44;7.80;99.90
14735;DHT22;7458;49.002;8.472;2023-01-10T08:32:10;7.70;99.90
14735;DHT22;7458;49.002;8.472;2023-01-10T08:34:36;7.70;99.90
14735;DHT22;7458;49.002;8.472;2023-01-10T08:37:02;7.60;99.90
14735;DHT22;7458;49.002;8.472;2023-01-10T08:39:28;7.60;99.90
14735;DHT22;7458;49.002;8.472;2023-01-10T08:41:55;7.50;99.90
14735;DHT22;7458;49.002;8.472;2023-01-10T08:44:21;7.50;99.90
14735;DHT22;7458;49.002;8.472;2023-01-10T08:46:47;7.50;99.90
14735;DHT22;7458;49.002;8.472;2023-01-10T08:49:13;7.50;99.90
14735;DHT22;7458;49.002;8.472;2023-01-10T08:51:39;7.50;99.90
14735;DHT22;7458;49.002;8.472;2023-01-10T08:54:05;7.50;99.90
14735;DHT22;7458;49.002;8.472;2023-01-10T08:56:31;7.60;99.90
14735;DHT22;7458;49.002;8.472;2023-01-10T08:58:57;7.50;99.90
14735;DHT22;7458;49.002;8.472;2023-01-10T09:01:23;7.60;99.90
14735;DHT22;7458;49.002;8.472;2023-01-10T09:03:48;7.60;99.90
14735;DHT22;7458;49.002;8.472;2023-01-10T09:06:14;7.60;99.90
14735;DHT22;7458;49.002;8.472;2023-01-10T09:08:40;7.60;99.90
14735;DHT22;7458;49.002;8.472;2023-01-10T09:11:06;7.70;99.90
14735;DHT22;7458;49.002;8.472;2023-01-10T09:13:32;7.70;99.90
14735;DHT22;7458;49.002;8.472;2023-01-10T09:15:58;7.70;99.90
14735;DHT22;7458;49.002;8.472;2023-01-10T09:18:25;7.70;99.90
14735;DHT22;7458;49.002;8.472;2023-01-10T09:20:52;7.80;99.90
14735;DHT22;7458;49.002;8.472;2023-01-10T09:23:19;7.70;99.90
14735;DHT22;7458;49.002;8.472;2023-01-10T09:25:51;7.60;99.90
14735;DHT22;7458;49.002;8.472;2023-01-10T09:28:19;7.60;99.90
14735;DHT22;7458;49.002;8.472;2023-01-10T09:30:46;7.70;99.90
14735;DHT22;7458;49.002;8.472;2023-01-10T09:33:12;7.80;99.90
14735;DHT22;7458;49.002;8.472;2023-01-10T09:35:39;7.90;99.90
14735;DHT22;7458;49.002;8.472;2023-01-10T09:38:09;7.90;99.90
14735;DHT22;7458;49.002;8.472;2023-01-10T09:44:18;8.00;99.90
14735;DHT22;7458;49.002;8.472;2023-01-10T09:46:59;8.10;99.90
14735;DHT22;7458;49.002;8.472;2023-01-10T09:49:52;8.20;99.90
14735;DHT22;7458;49.002;8.472;2023-01-10T09:52:47;8.30;99.90
14735;DHT22;7458;49.002;8.472;2023-01-10T09:55:19;8.40;99.90
14735;DHT22;7458;49.002;8.472;2023-01-10T09:57:55;8.60;99.90
14735;DHT22;7458;49.002;8.472;2023-01-10T10:00:41;8.90;99.90
14735;DHT22;7458;49.002;8.472;2023-01-10T10:03:35;8.90;99.90
14735;DHT22;7458;49.002;8.472;2023-01-10T10:06:11;8.80;99.90
14735;DHT22;7458;49.002;8.472;2023-01-10T10:08:40;8.80;99.90
14735;DHT22;7458;49.002;8.472;2023-01-10T10:11:31;8.80;99.90
14735;DHT22;7458;49.002;8.472;2023-01-10T10:23:01;8.60;99.90
14735;DHT22;7458;49.002;8.472;2023-01-10T10:26:12;8.60;99.90
14735;DHT22;7458;49.002;8.472;2023-01-10T10:29:06;8.50;99.90
14735;DHT22;7458;49.002;8.472;2023-01-10T10:32:04;8.50;99.90
14735;DHT22;7458;49.002;8.472;2023-01-10T10:34:55;8.40;99.90
14735;DHT22;7458;49.002;8.472;2023-01-10T10:37:37;8.40;99.90
14735;DHT22;7458;49.002;8.472;2023-01-10T10:40:22;8.40;99.90
14735;DHT22;7458;49.002;8.472;2023-01-10T10:42:55;8.50;99.90
14735;DHT22;7458;49.002;8.472;2023-01-10T10:45:35;8.50;99.90
14735;DHT22;7458;49.002;8.472;2023-01-10T10:48:15;8.50;99.90
14735;DHT22;7458;49.002;8.472;2023-01-10T10:53:40;8.70;99.90
14735;DHT22;7458;49.002;8.472;2023-01-10T10:56:12;8.60;99.90
14735;DHT22;7458;49.002;8.472;2023-01-10T10:58:43;8.60;99.90
14735;DHT22;7458;49.002;8.472;2023-01-10T11:01:14;8.80;99.90
14735;DHT22;7458;49.002;8.472;2023-01-10T11:06:16;9.00;99.90
14735;DHT22;7458;49.002;8.472;2023-01-10T11:08:45;9.00;99.90
14735;DHT22;7458;49.002;8.472;2023-01-10T11:11:24;9.10;99.90
14735;DHT22;7458;49.002;8.472;2023-01-10T11:13:59;9.40;99.90
14735;DHT22;7458;49.002;8.472;2023-01-10T11:19:09;9.70;99.90
14735;DHT22;7458;49.002;8.472;2023-01-10T11:21:35;10.00;99.90
14735;DHT22;7458;49.002;8.472;2023-01-10T11:24:03;10.30;99.90
14735;DHT22;7458;49.002;8.472;2023-01-10T11:26:36;10.40;99.90
14735;DHT22;7458;49.002;8.472;2023-01-10T11:31:50;12.00;99.90
14735;DHT22;7458;49.002;8.472;2023-01-10T11:34:29;11.70;99.90
14735;DHT22;7458;49.002;8.472;2023-01-10T11:37:00;11.20;99.90
14735;DHT22;7458;49.002;8.472;2023-01-10T11:39:29;10.90;99.90
14735;DHT22;7458;49.002;8.472;2023-01-10T11:41:56;10.80;99.90
14735;DHT22;7458;49.002;8.472;2023-01-10T11:44:42;10.80;99.90
14735;DHT22;7458;49.002;8.472;2023-01-10T11:47:10;10.90;99.90
14735;DHT22;7458;49.002;8.472;2023-01-10T11:49:41;10.80;99.90
14735;DHT22;7458;49.002;8.472;2023-01-10T11:52:26;10.60;99.90
14735;DHT22;7458;49.002;8.472;2023-01-10T11:54:57;10.20;99.90
14735;DHT22;7458;49.002;8.472;2023-01-10T11:57:29;10.20;99.90
14735;DHT22;7458;49.002;8.472;2023-01-10T12:00:00;10.20;99.90
14735;DHT22;7458;49.002;8.472;2023-01-10T12:02:33;10.10;99.90
14735;DHT22;7458;49.002;8.472;2023-01-10T12:05:10;10.20;99.90
14735;DHT22;7458;49.002;8.472;2023-01-10T12:08:21;10.30;99.90
14735;DHT22;7458;49.002;8.472;2023-01-10T12:10:59;10.20;99.90
14735;DHT22;7458;49.002;8.472;2023-01-10T12:13:27;10.10;99.90
14735;DHT22;7458;49.002;8.472;2023-01-10T12:16:33;9.90;99.90
14735;DHT22;7458;49.002;8.472;2023-01-10T12:19:02;10.10;99.90
14735;DHT22;7458;49.002;8.472;2023-01-10T12:21:40;10.20;99.90
14735;DHT22;7458;49.002;8.472;2023-01-10T12:26:49;10.10;99.90
14735;DHT22;7458;49.002;8.472;2023-01-10T12:29:28;10.00;99.90
14735;DHT22;7458;49.002;8.472;2023-01-10T12:32:20;10.00;99.90
14735;DHT22;7458;49.002;8.472;2023-01-10T12:34:57;9.90;99.90
14735;DHT22;7458;49.002;8.472;2023-01-10T12:37:48;10.10;99.90
14735;DHT22;7458;49.002;8.472;2023-01-10T12:40:51;10.00;99.90
14735;DHT22;7458;49.002;8.472;2023-01-10T12:43:40;10.00;99.90
14735;DHT22;7458;49.002;8.472;2023-01-10T12:46:52;9.80;99.90
14735;DHT22;7458;49.002;8.472;2023-01-10T12:49:28;9.80;99.90
14735;DHT22;7458;49.002;8.472;2023-01-10T12:52:05;9.80;99.90
14735;DHT22;7458;49.002;8.472;2023-01-10T12:54:48;9.80;99.90
14735;DHT22;7458;49.002;8.472;2023-01-10T12:57:29;9.80;99.90
14735;DHT22;7458;49.002;8.472;2023-01-10T13:00:00;9.80;99.90
14735;DHT22;7458;49.002;8.472;2023-01-10T13:02:39;9.80;99.90
14735;DHT22;7458;49.002;8.472;2023-01-10T13:05:25;9.80;99.90
14735;DHT22;7458;49.002;8.472;2023-01-10T13:07:58;9.80;99.90
14735;DHT22;7458;49.002;8.472;2023-01-10T13:10:30;9.90;99.90
14735;DHT22;7458;49.002;8.472;2023-01-10T13:21:40;9.80;99.90
14735;DHT22;7458;49.002;8.472;2023-01-10T13:24:22;9.80;99.90
14735;DHT22;7458;49.002;8.472;2023-01-10T13:26:55;9.80;99.90
14735;DHT22;7458;49.002;8.472;2023-01-10T13:29:25;9.80;99.90
14735;DHT22;7458;49.002;8.472;2023-01-10T13:31:57;9.80;99.90
14735;DHT22;7458;49.002;8.472;2023-01-10T13:34:32;9.90;99.90
14735;DHT22;7458;49.002;8.472;2023-01-10T13:39:53;9.90;99.90
14735;DHT22;7458;49.002;8.472;2023-01-10T13:45:22;10.00;99.90
14735;DHT22;7458;49.002;8.472;2023-01-10T13:52:54;10.40;99.90
14735;DHT22;7458;49.002;8.472;2023-01-10T14:00:50;10.10;99.90
14735;DHT22;7458;49.002;8.472;2023-01-10T14:03:49;9.90;99.70
14735;DHT22;7458;49.002;8.472;2023-01-10T14:09:31;9.60;98.60
14735;DHT22;7458;49.002;8.472;2023-01-10T14:12:31;9.60;99.30
14735;DHT22;7458;49.002;8.472;2023-01-10T14:15:20;9.50;99.20
14735;DHT22;7458;49.002;8.472;2023-01-10T14:17:58;9.50;99.50
14735;DHT22;7458;49.002;8.472;2023-01-10T14:20:28;9.50;99.90
14735;DHT22;7458;49.002;8.472;2023-01-10T14:23:14;9.50;99.90
14735;DHT22;7458;49.002;8.472;2023-01-10T14:25:51;9.50;99.90
14735;DHT22;7458;49.002;8.472;2023-01-10T14:28:24;9.50;99.90
14735;DHT22;7458;49.002;8.472;2023-01-10T14:31:23;9.50;99.90
14735;DHT22;7458;49.002;8.472;2023-01-10T14:33:50;9.60;99.90
14735;DHT22;7458;49.002;8.472;2023-01-10T14:36:26;9.60;99.90
14735;DHT22;7458;49.002;8.472;2023-01-10T14:38:57;9.60;99.90
14735;DHT22;7458;49.002;8.472;2023-01-10T14:41:36;9.60;99.90
14735;DHT22;7458;49.002;8.472;2023-01-10T14:44:23;9.60;99.90
14735;DHT22;7458;49.002;8.472;2023-01-10T14:46:59;9.60;99.90
14735;DHT22;7458;49.002;8.472;2023-01-10T14:49:35;9.60;99.90
14735;DHT22;7458;49.002;8.472;2023-01-10T14:52:23;9.60;99.90
14735;DHT22;7458;49.002;8.472;2023-01-10T14:57:58;12.20;99.90
14735;DHT22;7458;49.002;8.472;2023-01-10T15:00:31;11.50;99.90
14735;DHT22;7458;49.002;8.472;2023-01-10T15:03:01;11.00;99.90
14735;DHT22;7458;49.002;8.472;2023-01-10T15:05:35;10.80;99.90
14735;DHT22;7458;49.002;8.472;2023-01-10T15:10:50;10.30;99.90
14735;DHT22;7458;49.002;8.472;2023-01-10T15:13:24;10.10;99.90
14735;DHT22;7458;49.002;8.472;2023-01-10T15:15:53;9.90;99.90
14735;DHT22;7458;49.002;8.472;2023-01-10T15:18:38;9.80;99.90
14735;DHT22;7458;49.002;8.472;2023-01-10T15:21:10;9.80;99.90
14735;DHT22;7458;49.002;8.472;2023-01-10T15:23:43;9.70;99.90
14735;DHT22;7458;49.002;8.472;2023-01-10T15:26:29;9.60;99.90
14735;DHT22;7458;49.002;8.472;2023-01-10T15:29:18;9.40;99.90
14735;DHT22;7458;49.002;8.472;2023-01-10T15:31:46;9.50;99.90
14735;DHT22;7458;49.002;8.472;2023-01-10T15:34:18;9.40;99.90
14735;DHT22;7458;49.002;8.472;2023-01-10T15:36:54;9.30;99.90
14735;DHT22;7458;49.002;8.472;2023-01-10T15:39:30;9.30;99.90
14735;DHT22;7458;49.002;8.472;2023-01-10T15:42:07;9.30;99.90
14735;DHT22;7458;49.002;8.472;2023-01-10T15:44:45;9.30;99.90
14735;DHT22;7458;49.002;8.472;2023-01-10T15:47:41;9.30;99.90
14735;DHT22;7458;49.002;8.472;2023-01-10T15:50:57;9.20;99.90
14735;DHT22;7458;49.002;8.472;2023-01-10T15:54:04;9.10;99.90
14735;DHT22;7458;49.002;8.472;2023-01-10T15:56:40;9.00;99.90
14735;DHT22;7458;49.002;8.472;2023-01-10T15:59:28;9.00;99.90
14735;DHT22;7458;49.002;8.472;2023-01-10T16:02:22;9.00;99.90
14735;DHT22;7458;49.002;8.472;2023-01-10T16:05:08;9.00;99.90
14735;DHT22;7458;49.002;8.472;2023-01-10T16:07:44;9.00;99.90
14735;DHT22;7458;49.002;8.472;2023-01-10T16:10:25;9.00;99.90
14735;DHT22;7458;49.002;8.472;2023-01-10T16:12:52;8.90;99.90
14735;DHT22;7458;49.002;8.472;2023-01-10T16:15:39;8.80;99.90
14735;DHT22;7458;49.002;8.472;2023-01-10T16:18:09;8.90;99.90
14735;DHT22;7458;49.002;8.472;2023-01-10T16:20:37;8.90;99.90
14735;DHT22;7458;49.002;8.472;2023-01-10T16:23:14;8.90;99.90
14735;DHT22;7458;49.002;8.472;2023-01-10T16:25:45;9.00;99.90
14735;DHT22;7458;49.002;8.472;2023-01-10T16:28:16;8.90;99.90
14735;DHT22;7458;49.002;8.472;2023-01-10T16:30:43;8.90;99.90
14735;DHT22;7458;49.002;8.472;2023-01-10T16:33:16;8.90;99.90
14735;DHT22;7458;49.002;8.472;2023-01-10T16:35:46;8.90;99.90
14735;DHT22;7458;49.002;8.472;2023-01-10T16:38:13;8.90;99.60
14735;DHT22;7458;49.002;8.472;2023-01-10T16:40:45;9.00;99.90
14735;DHT22;7458;49.002;8.472;2023-01-10T16:43:14;8.90;99.90
14735;DHT22;7458;49.002;8.472;2023-01-10T16:45:47;8.90;99.50
14735;DHT22;7458;49.002;8.472;2023-01-10T16:48:16;8.90;99.30
14735;DHT22;7458;49.002;8.472;2023-01-10T16:50:44;8.90;99.40
14735;DHT22;7458;49.002;8.472;2023-01-10T16:53:12;9.00;99.40
14735;DHT22;7458;49.002;8.472;2023-01-10T16:55:43;8.90;99.40
14735;DHT22;7458;49.002;8.472;2023-01-10T16:58:14;8.90;99.40
14735;DHT22;7458;49.002;8.472;2023-01-10T17:00:43;8.90;99.30
14735;DHT22;7458;49.002;8.472;2023-01-10T17:03:17;8.90;99.30
14735;DHT22;7458;49.002;8.472;2023-01-10T17:05:46;8.90;99.00
14735;DHT22;7458;49.002;8.472;2023-01-10T17:08:22;8.80;99.30
14735;DHT22;7458;49.002;8.472;2023-01-10T17:10:52;8.90;99.30
14735;DHT22;7458;49.002;8.472;2023-01-10T17:13:27;8.90;99.30
14735;DHT22;7458;49.002;8.472;2023-01-10T17:15:55;8.80;99.20
14735;DHT22;7458;49.002;8.472;2023-01-10T17:18:23;8.90;99.30
14735;DHT22;7458;49.002;8.472;2023-01-10T17:20:51;8.90;99.40
14735;DHT22;7458;49.002;8.472;2023-01-10T17:23:17;8.80;99.70
14735;DHT22;7458;49.002;8.472;2023-01-10T17:25:43;8.80;99.70
14735;DHT22;7458;49.002;8.472;2023-01-10T17:28:11;8.80;99.70
14735;DHT22;7458;49.002;8.472;2023-01-10T17:30:38;8.70;99.70
14735;DHT22;7458;49.002;8.472;2023-01-10T17:33:04;8.70;99.70
14735;DHT22;7458;49.002;8.472;2023-01-10T17:35:41;8.70;99.90
14735;DHT22;7458;49.002;8.472;2023-01-10T17:38:11;8.70;99.80
14735;DHT22;7458;49.002;8.472;2023-01-10T17:40:40;9.40;99.90
14735;DHT22;7458;49.002;8.472;2023-01-10T17:43:06;10.50;99.90
14735;DHT22;7458;49.002;8.472;2023-01-10T17:45:33;10.10;99.90
14735;DHT22;7458;49.002;8.472;2023-01-10T17:47:58;9.70;99.90
14735;DHT22;7458;49.002;8.472;2023-01-10T17:50:25;9.50;99.90
14735;DHT22;7458;49.002;8.472;2023-01-10T17:52:50;9.30;99.90
14735;DHT22;7458;49.002;8.472;2023-01-10T17:55:16;9.20;99.90
14735;DHT22;7458;49.002;8.472;2023-01-10T17:57:42;9.00;99.90
14735;DHT22;7458;49.002;8.472;2023-01-10T18:00:09;9.00;99.90
14735;DHT22;7458;49.002;8.472;2023-01-10T18:02:35;8.90;99.90
14735;DHT22;7458;49.002;8.472;2023-01-10T18:05:01;8.80;99.90
14735;DHT22;7458;49.002;8.472;2023-01-10T18:07:27;8.80;99.90
14735;DHT22;7458;49.002;8.472;2023-01-10T18:09:53;8.70;99.90
14735;DHT22;7458;49.002;8.472;2023-01-10T18:12:21;8.70;99.90
14735;DHT22;7458;49.002;8.472;2023-01-10T18:14:46;8.70;99.90
14735;DHT22;7458;49.002;8.472;2023-01-10T18:17:14;8.70;99.90